createdAt,value
2018-11-14T00:00:11.170Z,13.40
2018-11-14T00:02:39.706Z,14.40
2018-11-14T00:05:08.319Z,12.17
2018-11-14T00:07:37.789Z,12.53
2018-11-14T00:10:07.326Z,12.67
2018-11-14T00:12:35.848Z,11.47
2018-11-14T00:15:04.492Z,12.73
2018-11-14T00:17:33.020Z,11.70
2018-11-14T00:20:01.520Z,13.77
2018-11-14T00:22:30.061Z,11.63
2018-11-14T00:24:58.612Z,11.70
2018-11-14T00:27:27.204Z,12.50
2018-11-14T00:29:55.798Z,11.93
2018-11-14T00:32:24.365Z,10.80
2018-11-14T00:34:52.952Z,10.03
2018-11-14T00:37:21.487Z,12.87
2018-11-14T00:39:50.012Z,12.17
2018-11-14T00:42:18.633Z,11.57
2018-11-14T00:44:47.186Z,12.53
2018-11-14T00:47:15.947Z,12.63
2018-11-14T00:49:44.485Z,12.40
2018-11-14T00:52:13.031Z,11.07
2018-11-14T00:54:41.671Z,14.87
2018-11-14T00:57:10.259Z,12.03
2018-11-14T00:59:38.828Z,12.23
2018-11-14T01:02:07.375Z,13.70
2018-11-14T01:04:36.212Z,14.17
2018-11-14T01:07:04.777Z,13.17
2018-11-14T01:09:33.344Z,12.93
2018-11-14T01:12:01.886Z,11.17
2018-11-14T01:14:30.538Z,10.10
2018-11-14T01:16:59.058Z,9.00
2018-11-14T01:19:27.744Z,11.70
2018-11-14T01:21:56.689Z,11.27
2018-11-14T01:24:25.608Z,10.63
2018-11-14T01:26:54.098Z,10.33
2018-11-14T01:29:22.688Z,9.73
2018-11-14T01:31:51.220Z,10.47
2018-11-14T01:34:19.738Z,9.17
2018-11-14T01:36:48.863Z,7.73
2018-11-14T01:39:17.392Z,7.23
2018-11-14T01:41:45.924Z,7.23
2018-11-14T01:44:14.466Z,6.93
2018-11-14T01:46:43.022Z,7.80
2018-11-14T01:49:11.577Z,5.87
2018-11-14T01:51:40.220Z,7.10
2018-11-14T01:54:08.772Z,6.53
2018-11-14T01:56:37.379Z,6.70
2018-11-14T01:59:05.938Z,6.33
2018-11-14T02:01:34.453Z,6.90
2018-11-14T02:04:02.982Z,6.67
2018-11-14T02:06:31.486Z,7.17
2018-11-14T02:09:00.000Z,7.37
2018-11-14T02:11:28.568Z,6.13
2018-11-14T02:13:57.075Z,5.83
2018-11-14T02:16:25.621Z,5.70
2018-11-14T02:18:54.212Z,6.20
2018-11-14T02:21:22.748Z,5.80
2018-11-14T02:23:51.289Z,5.53
2018-11-14T02:26:19.781Z,6.13
2018-11-14T02:28:48.433Z,6.03
2018-11-14T02:31:16.934Z,5.57
2018-11-14T02:33:45.485Z,6.33
2018-11-14T02:36:14.069Z,6.47
2018-11-14T02:38:42.577Z,7.03
2018-11-14T02:41:11.072Z,7.43
2018-11-14T02:43:39.653Z,7.60
2018-11-14T02:46:08.195Z,7.40
2018-11-14T02:48:36.712Z,8.20
2018-11-14T02:51:16.633Z,8.87
2018-11-14T02:53:45.194Z,7.47
2018-11-14T02:56:14.434Z,8.07
2018-11-14T02:58:42.991Z,7.50
2018-11-14T03:01:11.639Z,8.50
2018-11-14T03:03:40.307Z,8.40
2018-11-14T03:06:08.962Z,9.33
2018-11-14T03:08:37.545Z,9.57
2018-11-14T03:11:06.725Z,7.63
2018-11-14T03:13:35.293Z,8.33
2018-11-14T03:16:03.876Z,9.07
2018-11-14T03:18:32.520Z,7.63
2018-11-14T03:21:01.359Z,8.67
2018-11-14T03:23:29.929Z,9.50
2018-11-14T03:25:58.530Z,10.37
2018-11-14T03:28:27.611Z,8.80
2018-11-14T03:30:56.166Z,8.53
2018-11-14T03:33:24.671Z,8.53
2018-11-14T03:35:58.640Z,7.17
2018-11-14T03:38:27.275Z,8.60
2018-11-14T03:40:55.820Z,8.07
2018-11-14T03:43:24.457Z,8.00
2018-11-14T03:45:52.994Z,8.03
2018-11-14T03:48:21.556Z,8.13
2018-11-14T03:50:50.076Z,7.67
2018-11-14T03:53:18.640Z,7.20
2018-11-14T03:55:47.608Z,9.53
2018-11-14T03:58:16.183Z,14.03
2018-11-14T04:00:44.750Z,10.40
2018-11-14T04:03:13.399Z,11.07
2018-11-14T04:05:42.816Z,11.97
2018-11-14T04:08:11.360Z,12.53
2018-11-14T04:10:39.941Z,18.77
2018-11-14T04:13:08.495Z,15.77
2018-11-14T04:15:37.210Z,12.40
2018-11-14T04:18:05.801Z,13.30
2018-11-14T04:20:34.277Z,12.13
2018-11-14T04:23:02.842Z,14.90
2018-11-14T04:25:31.406Z,14.00
2018-11-14T04:28:00.168Z,17.87
2018-11-14T04:30:28.755Z,18.63
2018-11-14T04:32:57.322Z,14.60
2018-11-14T04:35:26.168Z,17.27
2018-11-14T04:37:54.729Z,16.53
2018-11-14T04:40:24.313Z,15.27
2018-11-14T04:42:53.111Z,13.80
2018-11-14T04:45:23.965Z,14.50
2018-11-14T04:47:52.583Z,12.63
2018-11-14T04:50:25.821Z,12.83
2018-11-14T04:52:54.727Z,12.40
2018-11-14T04:55:24.411Z,12.07
2018-11-14T04:57:53.549Z,10.03
2018-11-14T05:00:23.329Z,10.03
2018-11-14T05:02:52.306Z,13.60
2018-11-14T05:05:22.029Z,11.17
2018-11-14T05:07:50.613Z,11.20
2018-11-14T05:10:21.258Z,14.33
2018-11-14T05:12:50.259Z,12.37
2018-11-14T05:15:20.056Z,13.37
2018-11-14T05:17:49.241Z,12.90
2018-11-14T05:20:18.748Z,13.13
2018-11-14T05:22:47.630Z,14.00
2018-11-14T05:25:16.229Z,13.07
2018-11-14T05:27:44.913Z,13.93
2018-11-14T05:30:21.294Z,12.40
2018-11-14T05:32:50.376Z,13.87
2018-11-14T05:35:19.028Z,13.97
2018-11-14T05:37:48.129Z,15.70
2018-11-14T05:40:17.915Z,14.93
2018-11-14T05:42:47.247Z,14.87
2018-11-14T05:45:17.842Z,14.27
2018-11-14T05:47:46.496Z,15.00
2018-11-14T05:50:16.565Z,18.23
2018-11-14T05:52:45.196Z,18.90
2018-11-14T05:55:14.364Z,17.40
2018-11-14T05:57:43.103Z,20.43
2018-11-14T06:00:15.508Z,19.13
2018-11-14T06:02:44.718Z,20.27
2018-11-14T06:05:13.315Z,17.80
2018-11-14T06:07:42.102Z,21.10
2018-11-14T06:10:12.214Z,17.63
2018-11-14T06:12:41.503Z,21.80
2018-11-14T06:15:12.874Z,19.43
2018-11-14T06:17:41.961Z,19.80
2018-11-14T06:20:12.682Z,20.87
2018-11-14T06:22:41.378Z,20.77
2018-11-14T06:25:22.133Z,22.43
2018-11-14T06:27:51.838Z,20.07
2018-11-14T06:30:20.965Z,20.27
2018-11-14T06:32:49.826Z,18.83
2018-11-14T06:35:19.037Z,20.63
2018-11-14T06:37:48.425Z,22.83
2018-11-14T06:40:17.185Z,22.10
2018-11-14T06:42:45.748Z,23.53
2018-11-14T06:45:16.536Z,22.27
2018-11-14T06:47:46.169Z,24.17
2018-11-14T06:50:15.186Z,23.77
2018-11-14T06:52:44.328Z,23.10
2018-11-14T06:55:14.233Z,23.40
2018-11-14T06:57:43.147Z,25.60
2018-11-14T07:00:15.301Z,26.13
2018-11-14T07:02:45.107Z,25.77
2018-11-14T07:05:15.005Z,25.30
2018-11-14T07:07:44.338Z,26.43
2018-11-14T07:10:14.633Z,24.70
2018-11-14T07:12:43.282Z,23.60
2018-11-14T07:15:14.881Z,23.30
2018-11-14T07:17:44.204Z,22.43
2018-11-14T07:20:17.381Z,23.13
2018-11-14T07:22:45.940Z,22.47
2018-11-14T07:25:15.150Z,22.27
2018-11-14T07:27:43.800Z,22.57
2018-11-14T07:30:14.618Z,22.23
2018-11-14T07:32:44.482Z,26.77
2018-11-14T07:35:14.206Z,26.93
2018-11-14T07:37:44.703Z,25.53
2018-11-14T07:40:14.022Z,26.43
2018-11-14T07:42:43.117Z,23.27
2018-11-14T07:45:13.266Z,23.17
2018-11-14T07:47:42.025Z,21.07
2018-11-14T07:50:14.422Z,23.63
2018-11-14T07:52:43.910Z,24.17
2018-11-14T07:55:12.885Z,23.70
2018-11-14T07:57:41.466Z,22.50
2018-11-14T08:00:14.779Z,23.63
2018-11-14T08:02:43.333Z,24.53
2018-11-14T08:05:12.250Z,22.83
2018-11-14T08:07:40.847Z,23.37
2018-11-14T08:10:11.097Z,22.03
2018-11-14T08:12:39.923Z,22.20
2018-11-14T08:15:09.495Z,22.50
2018-11-14T08:17:38.053Z,22.30
2018-11-14T08:20:09.789Z,22.93
2018-11-14T08:22:38.297Z,24.57
2018-11-14T08:25:07.768Z,23.37
2018-11-14T08:27:36.759Z,25.40
2018-11-14T08:30:05.769Z,22.43
2018-11-14T08:32:34.338Z,24.43
2018-11-14T08:35:02.907Z,23.93
2018-11-14T08:37:31.426Z,21.47
2018-11-14T08:39:59.993Z,21.23
2018-11-14T08:42:28.492Z,21.63
2018-11-14T08:44:57.135Z,19.27
2018-11-14T08:47:25.674Z,20.87
2018-11-14T08:49:54.224Z,21.57
2018-11-14T08:52:22.834Z,20.13
2018-11-14T08:54:51.411Z,21.10
2018-11-14T08:57:19.941Z,21.23
2018-11-14T08:59:48.459Z,20.07
2018-11-14T09:02:17.035Z,20.20
2018-11-14T09:04:45.513Z,19.97
2018-11-14T09:07:14.194Z,20.97
2018-11-14T09:09:42.690Z,19.13
2018-11-14T09:12:11.337Z,19.70
2018-11-14T09:14:39.923Z,22.13
2018-11-14T09:17:08.816Z,23.90
2018-11-14T09:19:37.326Z,23.63
2018-11-14T09:22:05.934Z,22.87
2018-11-14T09:24:35.156Z,23.13
2018-11-14T09:27:03.682Z,21.73
2018-11-14T09:29:32.337Z,21.67
2018-11-14T09:32:00.887Z,22.50
2018-11-14T09:34:29.403Z,23.33
2018-11-14T09:36:57.965Z,24.33
2018-11-14T09:39:26.518Z,25.20
2018-11-14T09:41:55.112Z,24.40
2018-11-14T09:44:24.367Z,24.57
2018-11-14T09:46:52.911Z,25.80
2018-11-14T09:49:21.574Z,23.83
2018-11-14T09:51:50.190Z,23.23
2018-11-14T09:54:18.749Z,24.40
2018-11-14T09:56:47.282Z,22.90
2018-11-14T09:59:15.835Z,22.27
2018-11-14T10:01:44.335Z,21.40
2018-11-14T10:04:12.887Z,22.13
2018-11-14T10:06:41.910Z,21.57
2018-11-14T10:09:11.915Z,19.03
2018-11-14T10:11:41.089Z,19.70
2018-11-14T10:14:10.926Z,20.10
2018-11-14T10:16:39.518Z,19.77
2018-11-14T10:19:10.040Z,19.23
2018-11-14T10:21:38.769Z,19.87
2018-11-14T10:24:07.366Z,19.90
2018-11-14T10:26:35.908Z,20.73
2018-11-14T10:29:04.461Z,20.13
2018-11-14T10:31:33.043Z,22.47
2018-11-14T10:34:01.494Z,20.90
2018-11-14T10:36:30.034Z,21.93
2018-11-14T10:38:58.680Z,22.93
2018-11-14T10:41:27.234Z,23.47
2018-11-14T10:43:55.766Z,22.17
2018-11-14T10:46:24.306Z,23.70
2018-11-14T10:48:53.096Z,22.77
2018-11-14T10:51:21.696Z,22.37
2018-11-14T10:53:50.212Z,22.03
2018-11-14T10:56:18.759Z,23.57
2018-11-14T10:58:47.306Z,23.43
2018-11-14T11:01:21.189Z,23.57
2018-11-14T11:03:55.210Z,23.50
2018-11-14T11:06:36.116Z,24.90
2018-11-14T11:09:13.590Z,24.13
2018-11-14T11:11:48.086Z,23.53
2018-11-14T11:14:22.015Z,23.60
2018-11-14T11:16:56.009Z,24.20
2018-11-14T11:19:26.942Z,23.07
2018-11-14T11:21:55.450Z,22.90
2018-11-14T11:24:24.410Z,21.67
2018-11-14T11:26:53.003Z,21.17
2018-11-14T11:29:21.606Z,21.00
2018-11-14T11:31:50.347Z,21.43
2018-11-14T11:34:19.052Z,21.80
2018-11-14T11:36:47.700Z,22.37
2018-11-14T11:39:17.429Z,23.63
2018-11-14T11:41:46.639Z,21.73
2018-11-14T11:44:15.233Z,23.67
2018-11-14T11:46:44.349Z,23.27
2018-11-14T11:49:13.209Z,24.23
2018-11-14T11:51:41.785Z,24.13
2018-11-14T11:54:11.667Z,24.90
2018-11-14T11:56:40.856Z,21.97
2018-11-14T11:59:09.387Z,38.17
2018-11-14T12:01:37.993Z,24.37
2018-11-14T12:04:06.699Z,22.27
2018-11-14T12:06:35.294Z,23.23
2018-11-14T12:09:05.248Z,32.37
2018-11-14T12:11:33.801Z,22.43
2018-11-14T12:14:02.446Z,22.10
2018-11-14T12:16:30.991Z,20.07
2018-11-14T12:18:59.664Z,19.77
2018-11-14T12:21:28.218Z,19.33
2018-11-14T12:23:56.772Z,19.47
2018-11-14T12:26:25.261Z,18.30
2018-11-14T12:28:53.842Z,18.63
2018-11-14T12:31:22.396Z,18.67
2018-11-14T12:33:51.034Z,18.63
2018-11-14T12:36:19.570Z,18.73
2018-11-14T12:38:48.930Z,19.07
2018-11-14T12:41:17.374Z,18.70
2018-11-14T12:43:45.914Z,17.90
2018-11-14T12:46:14.471Z,19.23
2018-11-14T12:48:43.217Z,18.87
2018-11-14T12:51:11.795Z,18.13
2018-11-14T12:53:40.541Z,19.27
2018-11-14T12:56:09.105Z,17.10
2018-11-14T12:58:37.650Z,17.30
2018-11-14T13:01:06.366Z,19.60
2018-11-14T13:03:34.956Z,18.73
2018-11-14T13:06:03.962Z,17.50
2018-11-14T13:08:32.549Z,18.00
2018-11-14T13:11:01.115Z,20.03
2018-11-14T13:13:35.145Z,20.00
2018-11-14T13:16:03.906Z,18.27
2018-11-14T13:18:32.719Z,21.73
2018-11-14T13:21:09.542Z,19.27
2018-11-14T13:23:38.411Z,19.03
2018-11-14T13:26:07.395Z,18.07
2018-11-14T13:28:36.275Z,17.47
2018-11-14T13:31:05.428Z,18.93
2018-11-14T13:33:33.997Z,18.33
2018-11-14T13:36:02.609Z,19.17
2018-11-14T13:38:31.304Z,18.33
2018-11-14T13:40:59.806Z,21.47
2018-11-14T13:43:28.371Z,18.87
2018-11-14T13:45:56.888Z,20.67
2018-11-14T13:48:25.440Z,20.43
2018-11-14T13:50:54.101Z,19.90
2018-11-14T13:53:22.560Z,20.60
2018-11-14T13:55:51.274Z,18.83
2018-11-14T13:58:19.854Z,19.43
2018-11-14T14:00:48.401Z,21.83
2018-11-14T14:03:16.953Z,21.03
2018-11-14T14:05:45.620Z,18.07
2018-11-14T14:08:14.154Z,18.37
2018-11-14T14:10:42.652Z,20.50
2018-11-14T14:13:11.242Z,20.57
2018-11-14T14:15:39.788Z,21.57
2018-11-14T14:18:08.503Z,21.73
2018-11-14T14:20:37.152Z,21.63
2018-11-14T14:23:05.975Z,21.70
2018-11-14T14:25:34.527Z,17.33
2018-11-14T14:28:03.080Z,18.77
2018-11-14T14:30:31.827Z,21.63
2018-11-14T14:33:00.370Z,18.80
2018-11-14T14:35:29.118Z,20.67
2018-11-14T14:37:57.751Z,24.53
2018-11-14T14:40:26.270Z,26.47
2018-11-14T14:42:54.961Z,24.17
2018-11-14T14:45:24.983Z,25.57
2018-11-14T14:47:53.523Z,26.17
2018-11-14T14:50:22.090Z,26.63
2018-11-14T14:52:50.714Z,23.90
2018-11-14T14:55:22.232Z,23.23
2018-11-14T14:57:50.883Z,24.43
2018-11-14T15:00:27.565Z,25.00
2018-11-14T15:02:56.149Z,21.07
2018-11-14T15:05:24.932Z,22.27
2018-11-14T15:07:53.503Z,24.97
2018-11-14T15:10:23.144Z,24.83
2018-11-14T15:12:51.704Z,21.90
2018-11-14T15:15:20.728Z,22.03
2018-11-14T15:17:49.454Z,25.17
2018-11-14T15:20:20.000Z,35.57
2018-11-14T15:22:49.055Z,33.53
2018-11-14T15:25:19.176Z,41.13
2018-11-14T15:27:48.198Z,41.27
2018-11-14T15:30:21.130Z,46.67
2018-11-14T15:32:50.483Z,39.23
2018-11-14T15:35:19.239Z,35.37
2018-11-14T15:37:47.827Z,35.30
2018-11-14T15:40:18.896Z,27.57
2018-11-14T15:42:52.233Z,24.20
2018-11-14T15:45:26.244Z,23.47
2018-11-14T15:47:57.241Z,22.30
2018-11-14T15:50:28.279Z,22.10
2018-11-14T15:52:58.808Z,23.73
2018-11-14T15:55:27.919Z,23.93
2018-11-14T15:57:57.344Z,24.63
2018-11-14T16:00:30.121Z,23.50
2018-11-14T16:02:58.904Z,23.33
2018-11-14T16:05:28.916Z,22.30
2018-11-14T16:07:58.949Z,21.30
2018-11-14T16:10:28.603Z,19.83
2018-11-14T16:12:57.220Z,20.20
2018-11-14T16:15:33.843Z,20.97
2018-11-14T16:18:02.452Z,21.83
2018-11-14T16:20:31.077Z,24.63
2018-11-14T16:22:59.776Z,27.00
2018-11-14T16:25:28.905Z,26.70
2018-11-14T16:27:58.951Z,27.10
2018-11-14T16:30:31.801Z,26.83
2018-11-14T16:33:02.773Z,28.83
2018-11-14T16:35:31.311Z,32.10
2018-11-14T16:38:00.402Z,28.17
2018-11-14T16:40:31.821Z,21.77
2018-11-14T16:43:01.711Z,20.37
2018-11-14T16:45:30.249Z,20.60
2018-11-14T16:47:58.858Z,19.90
2018-11-14T16:50:27.480Z,18.53
2018-11-14T16:52:56.337Z,16.13
2018-11-14T16:55:25.252Z,16.47
2018-11-14T16:57:56.313Z,16.40
2018-11-14T17:00:28.107Z,17.23
2018-11-14T17:02:56.649Z,19.83
2018-11-14T17:05:26.496Z,20.40
2018-11-14T17:07:55.203Z,18.27
2018-11-14T17:10:24.207Z,18.83
2018-11-14T17:12:54.534Z,19.13
2018-11-14T17:15:24.450Z,21.50
2018-11-14T17:17:56.145Z,18.60
2018-11-14T17:20:24.840Z,19.50
2018-11-14T17:22:54.631Z,22.67
2018-11-14T17:32:16.717Z,20.13
2018-11-14T17:34:45.569Z,21.40
2018-11-14T17:37:14.174Z,24.43
2018-11-14T17:39:42.908Z,23.47
2018-11-14T17:42:11.689Z,22.03
2018-11-14T17:44:40.245Z,22.50
2018-11-14T17:47:08.789Z,26.73
2018-11-14T17:49:37.357Z,23.70
2018-11-14T17:52:07.791Z,24.03
2018-11-14T17:54:36.401Z,21.37
2018-11-14T17:57:05.145Z,21.17
2018-11-14T17:59:33.843Z,20.50
2018-11-14T18:02:02.422Z,20.67
2018-11-14T18:04:31.384Z,20.73
2018-11-14T18:07:00.605Z,20.30
2018-11-14T18:09:29.129Z,22.87
2018-11-14T18:11:57.769Z,23.10
2018-11-14T18:14:26.364Z,25.20
2018-11-14T18:16:54.902Z,25.47
2018-11-14T18:19:23.526Z,26.13
2018-11-14T18:21:52.086Z,27.83
2018-11-14T18:24:21.316Z,33.27
2018-11-14T18:26:49.850Z,26.07
2018-11-14T18:29:18.477Z,26.17
2018-11-14T18:31:47.015Z,27.50
2018-11-14T18:34:15.566Z,21.07
2018-11-14T18:36:44.192Z,22.30
2018-11-14T18:39:14.517Z,23.37
2018-11-14T18:41:44.635Z,25.63
2018-11-14T18:44:13.410Z,29.00
2018-11-14T18:46:42.860Z,27.97
2018-11-14T18:49:11.470Z,28.97
2018-11-14T18:51:40.006Z,29.67
2018-11-14T18:54:08.734Z,31.73
2018-11-14T18:56:37.485Z,30.67
2018-11-14T18:59:06.379Z,29.17
2018-11-14T19:01:35.213Z,24.23
2018-11-14T19:04:07.482Z,24.33
2018-11-14T19:06:36.386Z,22.90
2018-11-14T19:09:07.629Z,21.37
2018-11-14T19:11:36.151Z,19.90
2018-11-14T19:14:05.103Z,20.10
2018-11-14T19:16:33.681Z,18.67
2018-11-14T19:19:02.629Z,18.90
2018-11-14T19:21:30.868Z,19.13
2018-11-14T19:23:59.445Z,18.00
2018-11-14T19:26:27.985Z,18.33
2018-11-14T19:28:56.542Z,19.77
2018-11-14T19:31:25.108Z,18.40
2018-11-14T19:33:57.788Z,20.60
2018-11-14T19:36:30.394Z,19.17
2018-11-14T19:38:59.281Z,20.00
2018-11-14T19:41:28.081Z,23.53
2018-11-14T19:43:56.770Z,23.53
2018-11-14T19:46:25.400Z,21.83
2018-11-14T19:48:55.338Z,21.50
2018-11-14T19:51:23.838Z,21.33
2018-11-14T19:53:52.335Z,22.67
2018-11-14T19:56:20.829Z,19.73
2018-11-14T19:58:49.354Z,18.57
2018-11-14T20:01:17.867Z,18.10
2018-11-14T20:03:46.440Z,19.77
2018-11-14T20:06:15.232Z,19.63
2018-11-14T20:08:43.908Z,19.37
2018-11-14T20:11:12.469Z,19.93
2018-11-14T20:13:41.063Z,20.10
2018-11-14T20:16:09.625Z,19.27
2018-11-14T20:18:38.536Z,18.70
2018-11-14T20:21:07.478Z,20.90
2018-11-14T20:23:36.002Z,19.10
2018-11-14T20:26:04.904Z,20.27
2018-11-14T20:28:35.265Z,21.10
2018-11-14T20:31:03.848Z,21.97
2018-11-14T20:33:32.813Z,22.63
2018-11-14T20:36:02.451Z,21.70
2018-11-14T20:38:31.074Z,22.53
2018-11-14T20:40:59.623Z,21.43
2018-11-14T20:43:28.147Z,22.83
2018-11-14T20:45:56.764Z,24.00
2018-11-14T20:48:25.372Z,23.13
2018-11-14T20:50:53.990Z,23.70
2018-11-14T20:53:23.228Z,23.17
2018-11-14T20:55:51.919Z,22.53
2018-11-14T20:58:20.337Z,25.33
2018-11-14T21:00:48.932Z,23.17
2018-11-14T21:03:17.530Z,22.50
2018-11-14T21:05:46.088Z,22.37
2018-11-14T21:08:14.566Z,22.40
2018-11-14T21:10:43.034Z,24.07
2018-11-14T21:13:11.544Z,22.33
2018-11-14T21:15:40.751Z,22.30
2018-11-14T21:18:09.293Z,21.80
2018-11-14T21:20:38.599Z,23.27
2018-11-14T21:23:07.443Z,21.70
2018-11-14T21:25:35.941Z,22.47
2018-11-14T21:28:04.626Z,21.20
2018-11-14T21:30:33.261Z,21.20
2018-11-14T21:33:01.821Z,22.10
2018-11-14T21:35:32.320Z,23.07
2018-11-14T21:38:03.338Z,22.83
2018-11-14T21:40:32.021Z,22.33
2018-11-14T21:43:00.692Z,21.37
2018-11-14T21:45:29.815Z,22.33
2018-11-14T21:48:03.757Z,23.13
2018-11-14T21:50:32.907Z,23.10
2018-11-14T21:53:01.602Z,23.53
2018-11-14T21:55:30.101Z,22.37
2018-11-14T21:57:58.715Z,22.77
2018-11-14T22:00:33.082Z,23.73
2018-11-14T22:03:01.968Z,22.53
2018-11-14T22:05:30.540Z,22.43
2018-11-14T22:07:59.253Z,22.33
2018-11-14T22:10:28.124Z,22.73
2018-11-14T22:12:56.759Z,21.70
2018-11-14T22:15:26.411Z,22.07
2018-11-14T22:17:54.923Z,22.47
2018-11-14T22:20:25.059Z,21.50
2018-11-14T22:22:53.554Z,20.67
2018-11-14T22:25:23.296Z,20.90
2018-11-14T22:27:52.019Z,20.40
2018-11-14T22:30:23.452Z,20.47
2018-11-14T22:32:52.081Z,19.63
2018-11-14T22:35:21.821Z,21.03
2018-11-14T22:37:50.405Z,20.27
2018-11-14T22:40:20.453Z,20.23
2018-11-14T22:42:48.982Z,20.63
2018-11-14T22:45:19.024Z,20.77
2018-11-14T22:47:47.900Z,20.13
2018-11-14T22:50:17.859Z,20.47
2018-11-14T22:52:46.840Z,20.03
2018-11-14T22:55:16.636Z,19.60
2018-11-14T22:57:46.235Z,21.07
2018-11-14T23:00:21.785Z,19.90
2018-11-14T23:02:51.602Z,20.37
2018-11-14T23:05:20.344Z,19.40
2018-11-14T23:07:50.324Z,19.87
2018-11-14T23:10:19.936Z,19.60
2018-11-14T23:12:48.913Z,19.63
2018-11-14T23:15:17.722Z,18.97
2018-11-14T23:17:46.376Z,17.80
2018-11-14T23:20:15.772Z,19.20
2018-11-14T23:22:44.865Z,18.13
2018-11-14T23:25:13.871Z,19.17
2018-11-14T23:27:43.666Z,19.77
2018-11-14T23:30:13.381Z,17.63
2018-11-14T23:32:44.429Z,17.90
2018-11-14T23:35:20.312Z,17.77
2018-11-14T23:37:49.925Z,18.40
2018-11-14T23:40:19.117Z,18.23
2018-11-14T23:42:48.078Z,18.60
2018-11-14T23:45:17.612Z,19.40
2018-11-14T23:47:46.873Z,18.03
2018-11-14T23:50:19.551Z,18.63
2018-11-14T23:52:49.052Z,19.27
2018-11-14T23:55:18.387Z,19.03
2018-11-14T23:57:47.139Z,18.43
